This is the latest recevied weather packets stored in our database for station/object SQ7RAF-15. If no packets are shown the sender has not sent any weather packets the latest 10 day(s).
| Time | Temp. | Humidity | Pressure | Rain* | Wind** | Luminosity | Snow |
|---|---|---|---|---|---|---|---|
| 1777729818 | 24.44° C | 32% | 1021.6 hPa | 0 mm | - | 410 W/m² | - |
| 1777729529 | 24.44° C | 32% | 1021.7 hPa | 0 mm | - | 348 W/m² | - |
| 1777729242 | 24.44° C | 32% | 1021.7 hPa | 0 mm | - | 305 W/m² | - |
| 1777728922 | 23.33° C | 33% | 1021.6 hPa | 0 mm | - | 440 W/m² | - |
| 1777728633 | 23.33° C | 33% | 1021.8 hPa | 0 mm | - | 383 W/m² | - |
| 1777728347 | 23.89° C | 33% | 1021.9 hPa | 0 mm | - | 455 W/m² | - |
| 1777728044 | 23.89° C | 34% | 1022 hPa | 0 mm | - | 529 W/m² | - |
| 1777727738 | 24.44° C | 32% | 1022.2 hPa | 0 mm | - | 523 W/m² | - |
| 1777727417 | 25° C | 32% | 1022.2 hPa | 0 mm | - | 527 W/m² | - |
| 1777727130 | 24.44° C | 33% | 1022.2 hPa | 0 mm | - | 503 W/m² | - |
| 1777726826 | 25° C | 32% | 1022.3 hPa | 0 mm | - | 504 W/m² | - |
| 1777726537 | 25° C | 32% | 1022.3 hPa | 0 mm | - | 535 W/m² | - |
| 1777726218 | 24.44° C | 32% | 1022.3 hPa | 0 mm | - | 559 W/m² | - |
| 1777725930 | 25° C | 32% | 1022.4 hPa | 0 mm | - | 559 W/m² | - |
| 1777725642 | 24.44° C | 33% | 1022.4 hPa | 0 mm | - | 530 W/m² | - |
| 1777725322 | 23.89° C | 33% | 1022.5 hPa | 0 mm | - | 519 W/m² | - |
| 1777725034 | 23.89° C | 33% | 1022.6 hPa | 0 mm | - | 505 W/m² | - |
| 1777724746 | 23.33° C | 34% | 1022.7 hPa | 0 mm | - | 523 W/m² | - |
| 1777724426 | 23.33° C | 34% | 1022.7 hPa | 0 mm | - | 548 W/m² | - |
| 1777724137 | 23.89° C | 33% | 1022.8 hPa | 0 mm | - | 561 W/m² | - |
| 1777723819 | 23.33° C | 34% | 1022.9 hPa | 0 mm | - | 583 W/m² | - |
| 1777723529 | 23.89° C | 35% | 1023 hPa | 0 mm | - | 590 W/m² | - |
| 1777723242 | 24.44° C | 34% | 1023.1 hPa | 0 mm | - | 602 W/m² | - |
| 1777722921 | 24.44° C | 34% | 1023.2 hPa | 0 mm | - | 591 W/m² | - |
| 1777722634 | 23.89° C | 34% | 1023.2 hPa | 0 mm | - | 591 W/m² | - |
* Rain latest hour (hover to see other rain measurements)
** Current wind speed in m/s (hover to see current wind gust speed)